Terminal Aerodrome Forecast
Issued by NWS

Home | Current Version | Previous Version | Text Only | Print | Product List | Glossary On
Versions: 1 2 3 4 5 6 7 8 9 10 11 12
052
FTUS43 KAPX 191121
TAFPLN
TAF
KPLN 191121Z 1912/2012 29005KT P6SM SCT120
     FM200200 00000KT P6SM BKN080=

USA.gov is the U.S. government's official web portal to all federal, state and local government web resources and services.